sensor_id;sensor_type;location;lat;lon;timestamp;temperature;humidity
26947;DHT22;14501;52.282;10.560;2022-11-20T00:00:46;-1.90;99.90
26947;DHT22;14501;52.282;10.560;2022-11-20T00:03:12;-1.90;99.90
26947;DHT22;14501;52.282;10.560;2022-11-20T00:05:38;-1.80;99.90
26947;DHT22;14501;52.282;10.560;2022-11-20T00:08:04;-1.80;99.90
26947;DHT22;14501;52.282;10.560;2022-11-20T00:10:30;-1.70;99.90
26947;DHT22;14501;52.282;10.560;2022-11-20T00:12:57;-1.60;99.90
26947;DHT22;14501;52.282;10.560;2022-11-20T00:15:23;-1.50;99.90
26947;DHT22;14501;52.282;10.560;2022-11-20T00:17:49;-1.40;99.90
26947;DHT22;14501;52.282;10.560;2022-11-20T00:20:14;-1.40;99.90
26947;DHT22;14501;52.282;10.560;2022-11-20T00:22:40;-1.30;99.90
26947;DHT22;14501;52.282;10.560;2022-11-20T00:25:06;-1.40;99.90
26947;DHT22;14501;52.282;10.560;2022-11-20T00:27:31;-1.20;99.90
26947;DHT22;14501;52.282;10.560;2022-11-20T00:29:57;-1.20;99.90
26947;DHT22;14501;52.282;10.560;2022-11-20T00:32:23;-1.30;99.90
26947;DHT22;14501;52.282;10.560;2022-11-20T00:34:48;-1.30;99.90
26947;DHT22;14501;52.282;10.560;2022-11-20T00:37:14;-1.50;99.90
26947;DHT22;14501;52.282;10.560;2022-11-20T00:39:40;-1.50;99.90
26947;DHT22;14501;52.282;10.560;2022-11-20T00:42:05;-1.50;99.90
26947;DHT22;14501;52.282;10.560;2022-11-20T00:44:31;-1.50;99.90
26947;DHT22;14501;52.282;10.560;2022-11-20T00:46:56;-1.50;99.90
26947;DHT22;14501;52.282;10.560;2022-11-20T00:49:22;-1.40;99.90
26947;DHT22;14501;52.282;10.560;2022-11-20T00:51:47;-1.50;99.90
26947;DHT22;14501;52.282;10.560;2022-11-20T00:54:13;-1.50;99.90
26947;DHT22;14501;52.282;10.560;2022-11-20T00:56:39;-1.50;99.90
26947;DHT22;14501;52.282;10.560;2022-11-20T00:59:05;-1.50;99.90
26947;DHT22;14501;52.282;10.560;2022-11-20T01:01:31;-1.60;99.90
26947;DHT22;14501;52.282;10.560;2022-11-20T01:03:59;-1.60;99.90
26947;DHT22;14501;52.282;10.560;2022-11-20T01:06:27;-1.70;99.90
26947;DHT22;14501;52.282;10.560;2022-11-20T01:08:56;-1.80;99.90
26947;DHT22;14501;52.282;10.560;2022-11-20T01:11:25;-1.80;99.90
26947;DHT22;14501;52.282;10.560;2022-11-20T01:13:52;-1.90;99.90
26947;DHT22;14501;52.282;10.560;2022-11-20T01:16:19;-2.00;99.90
26947;DHT22;14501;52.282;10.560;2022-11-20T01:18:47;-2.00;99.90
26947;DHT22;14501;52.282;10.560;2022-11-20T01:21:19;-2.00;99.90
26947;DHT22;14501;52.282;10.560;2022-11-20T01:23:45;-2.00;99.90
26947;DHT22;14501;52.282;10.560;2022-11-20T01:26:14;-2.10;99.90
26947;DHT22;14501;52.282;10.560;2022-11-20T01:28:40;-2.10;99.90
26947;DHT22;14501;52.282;10.560;2022-11-20T01:33:41;-2.10;99.90
26947;DHT22;14501;52.282;10.560;2022-11-20T01:36:08;-2.10;99.90
26947;DHT22;14501;52.282;10.560;2022-11-20T01:38:34;-2.20;99.90
26947;DHT22;14501;52.282;10.560;2022-11-20T01:40:59;-2.30;99.90
26947;DHT22;14501;52.282;10.560;2022-11-20T01:43:25;-2.30;99.90
26947;DHT22;14501;52.282;10.560;2022-11-20T01:48:44;-2.30;99.90
26947;DHT22;14501;52.282;10.560;2022-11-20T01:51:17;-2.30;99.90
26947;DHT22;14501;52.282;10.560;2022-11-20T01:53:44;-2.30;99.90
26947;DHT22;14501;52.282;10.560;2022-11-20T01:56:12;-2.30;99.90
26947;DHT22;14501;52.282;10.560;2022-11-20T01:58:44;-2.30;99.90
26947;DHT22;14501;52.282;10.560;2022-11-20T02:01:13;-2.30;99.90
26947;DHT22;14501;52.282;10.560;2022-11-20T02:03:39;-2.40;99.90
26947;DHT22;14501;52.282;10.560;2022-11-20T02:08:41;-2.30;99.90
26947;DHT22;14501;52.282;10.560;2022-11-20T02:11:07;-2.30;99.90
26947;DHT22;14501;52.282;10.560;2022-11-20T02:13:34;-2.30;99.90
26947;DHT22;14501;52.282;10.560;2022-11-20T02:16:12;-2.20;99.90
26947;DHT22;14501;52.282;10.560;2022-11-20T02:18:39;-2.10;99.90
26947;DHT22;14501;52.282;10.560;2022-11-20T02:21:44;-2.00;99.90
26947;DHT22;14501;52.282;10.560;2022-11-20T02:24:18;-1.90;99.90
26947;DHT22;14501;52.282;10.560;2022-11-20T02:26:57;-1.90;99.90
26947;DHT22;14501;52.282;10.560;2022-11-20T02:29:27;-1.80;99.90
26947;DHT22;14501;52.282;10.560;2022-11-20T02:31:56;-1.70;99.90
26947;DHT22;14501;52.282;10.560;2022-11-20T02:34:23;-1.60;99.90
26947;DHT22;14501;52.282;10.560;2022-11-20T02:36:49;-1.50;99.90
26947;DHT22;14501;52.282;10.560;2022-11-20T02:39:16;-1.60;99.90
26947;DHT22;14501;52.282;10.560;2022-11-20T02:41:42;-1.50;99.90
26947;DHT22;14501;52.282;10.560;2022-11-20T02:44:08;-1.40;99.90
26947;DHT22;14501;52.282;10.560;2022-11-20T02:46:34;-1.40;99.90
26947;DHT22;14501;52.282;10.560;2022-11-20T02:49:02;-1.30;99.90
26947;DHT22;14501;52.282;10.560;2022-11-20T02:51:28;-1.30;99.90
26947;DHT22;14501;52.282;10.560;2022-11-20T02:53:54;-1.20;99.90
26947;DHT22;14501;52.282;10.560;2022-11-20T02:56:20;-1.20;99.90
26947;DHT22;14501;52.282;10.560;2022-11-20T02:58:45;-1.20;99.90
26947;DHT22;14501;52.282;10.560;2022-11-20T03:01:11;-1.20;99.90
26947;DHT22;14501;52.282;10.560;2022-11-20T03:03:37;-1.20;99.90
26947;DHT22;14501;52.282;10.560;2022-11-20T03:06:03;-1.30;99.90
26947;DHT22;14501;52.282;10.560;2022-11-20T03:08:28;-1.20;99.90
26947;DHT22;14501;52.282;10.560;2022-11-20T03:10:54;-1.20;99.90
26947;DHT22;14501;52.282;10.560;2022-11-20T03:13:19;-1.10;99.90
26947;DHT22;14501;52.282;10.560;2022-11-20T03:15:45;-1.00;99.90
26947;DHT22;14501;52.282;10.560;2022-11-20T03:18:11;-1.00;99.90
26947;DHT22;14501;52.282;10.560;2022-11-20T03:20:37;-1.00;99.90
26947;DHT22;14501;52.282;10.560;2022-11-20T03:23:03;-0.90;99.90
26947;DHT22;14501;52.282;10.560;2022-11-20T03:25:29;-0.90;99.90
26947;DHT22;14501;52.282;10.560;2022-11-20T03:27:54;-0.90;99.90
26947;DHT22;14501;52.282;10.560;2022-11-20T03:30:20;-1.00;99.90
26947;DHT22;14501;52.282;10.560;2022-11-20T03:32:46;-1.10;99.90
26947;DHT22;14501;52.282;10.560;2022-11-20T03:35:11;-1.00;99.90
26947;DHT22;14501;52.282;10.560;2022-11-20T03:37:37;-1.20;99.90
26947;DHT22;14501;52.282;10.560;2022-11-20T03:40:03;-1.20;99.90
26947;DHT22;14501;52.282;10.560;2022-11-20T03:42:29;-1.20;99.90
26947;DHT22;14501;52.282;10.560;2022-11-20T03:45:15;-1.20;99.90
26947;DHT22;14501;52.282;10.560;2022-11-20T03:47:41;-1.30;99.90
26947;DHT22;14501;52.282;10.560;2022-11-20T03:50:07;-1.30;99.90
26947;DHT22;14501;52.282;10.560;2022-11-20T03:52:33;-1.40;99.90
26947;DHT22;14501;52.282;10.560;2022-11-20T03:54:59;-1.40;99.90
26947;DHT22;14501;52.282;10.560;2022-11-20T03:57:24;-1.60;99.90
26947;DHT22;14501;52.282;10.560;2022-11-20T03:59:50;-1.60;99.90
26947;DHT22;14501;52.282;10.560;2022-11-20T04:02:15;-1.60;99.90
26947;DHT22;14501;52.282;10.560;2022-11-20T04:04:41;-1.50;99.90
26947;DHT22;14501;52.282;10.560;2022-11-20T04:07:06;-1.60;99.90
26947;DHT22;14501;52.282;10.560;2022-11-20T04:09:32;-1.60;99.90
26947;DHT22;14501;52.282;10.560;2022-11-20T04:11:58;-1.60;99.90
26947;DHT22;14501;52.282;10.560;2022-11-20T04:14:23;-1.60;99.90
26947;DHT22;14501;52.282;10.560;2022-11-20T04:16:49;-1.70;99.90
26947;DHT22;14501;52.282;10.560;2022-11-20T04:19:16;-1.80;99.90
26947;DHT22;14501;52.282;10.560;2022-11-20T04:21:43;-1.80;99.90
26947;DHT22;14501;52.282;10.560;2022-11-20T04:24:09;-1.80;99.90
26947;DHT22;14501;52.282;10.560;2022-11-20T04:26:36;-1.90;99.90
26947;DHT22;14501;52.282;10.560;2022-11-20T04:29:03;-2.00;99.90
26947;DHT22;14501;52.282;10.560;2022-11-20T04:31:31;-2.10;99.90
26947;DHT22;14501;52.282;10.560;2022-11-20T04:34:05;-2.10;99.90
26947;DHT22;14501;52.282;10.560;2022-11-20T04:36:32;-2.10;99.90
26947;DHT22;14501;52.282;10.560;2022-11-20T04:38:59;-2.10;99.90
26947;DHT22;14501;52.282;10.560;2022-11-20T04:41:35;-2.20;99.90
26947;DHT22;14501;52.282;10.560;2022-11-20T04:44:03;-2.20;99.90
26947;DHT22;14501;52.282;10.560;2022-11-20T04:46:31;-2.20;99.90
26947;DHT22;14501;52.282;10.560;2022-11-20T04:48:57;-2.20;99.90
26947;DHT22;14501;52.282;10.560;2022-11-20T04:51:23;-2.30;99.90
26947;DHT22;14501;52.282;10.560;2022-11-20T04:53:49;-2.40;99.90
26947;DHT22;14501;52.282;10.560;2022-11-20T04:56:15;-2.50;99.90
26947;DHT22;14501;52.282;10.560;2022-11-20T04:58:41;-2.40;99.90
26947;DHT22;14501;52.282;10.560;2022-11-20T05:01:13;-2.40;99.90
26947;DHT22;14501;52.282;10.560;2022-11-20T05:03:40;-2.40;99.90
26947;DHT22;14501;52.282;10.560;2022-11-20T05:06:07;-2.30;99.90
26947;DHT22;14501;52.282;10.560;2022-11-20T05:08:32;-2.30;99.90
26947;DHT22;14501;52.282;10.560;2022-11-20T05:11:10;-2.30;99.90
26947;DHT22;14501;52.282;10.560;2022-11-20T05:13:36;-2.20;99.90
26947;DHT22;14501;52.282;10.560;2022-11-20T05:16:04;-2.20;99.90
26947;DHT22;14501;52.282;10.560;2022-11-20T05:18:30;-2.20;99.90
26947;DHT22;14501;52.282;10.560;2022-11-20T05:20:57;-2.20;99.90
26947;DHT22;14501;52.282;10.560;2022-11-20T05:23:23;-2.10;99.90
26947;DHT22;14501;52.282;10.560;2022-11-20T05:25:52;-2.00;99.90
26947;DHT22;14501;52.282;10.560;2022-11-20T05:28:18;-1.90;99.90
26947;DHT22;14501;52.282;10.560;2022-11-20T05:30:43;-1.90;99.90
26947;DHT22;14501;52.282;10.560;2022-11-20T05:33:09;-1.90;99.90
26947;DHT22;14501;52.282;10.560;2022-11-20T05:35:35;-1.90;99.90
26947;DHT22;14501;52.282;10.560;2022-11-20T05:38:00;-1.90;99.90
26947;DHT22;14501;52.282;10.560;2022-11-20T05:40:26;-1.80;99.90
26947;DHT22;14501;52.282;10.560;2022-11-20T05:42:51;-1.80;99.90
26947;DHT22;14501;52.282;10.560;2022-11-20T05:45:17;-1.80;99.90
26947;DHT22;14501;52.282;10.560;2022-11-20T05:47:42;-1.80;99.90
26947;DHT22;14501;52.282;10.560;2022-11-20T05:50:08;-1.80;99.90
26947;DHT22;14501;52.282;10.560;2022-11-20T05:52:34;-1.80;99.90
26947;DHT22;14501;52.282;10.560;2022-11-20T05:55:00;-1.80;99.90
26947;DHT22;14501;52.282;10.560;2022-11-20T05:57:25;-1.60;99.90
26947;DHT22;14501;52.282;10.560;2022-11-20T05:59:51;-1.60;99.90
26947;DHT22;14501;52.282;10.560;2022-11-20T06:02:16;-1.50;99.90
26947;DHT22;14501;52.282;10.560;2022-11-20T06:04:42;-1.50;99.90
26947;DHT22;14501;52.282;10.560;2022-11-20T06:07:08;-1.50;99.90
26947;DHT22;14501;52.282;10.560;2022-11-20T06:09:34;-1.40;99.90
26947;DHT22;14501;52.282;10.560;2022-11-20T06:12:00;-1.30;99.90
26947;DHT22;14501;52.282;10.560;2022-11-20T06:14:25;-1.30;99.90
26947;DHT22;14501;52.282;10.560;2022-11-20T06:16:51;-1.20;99.90
26947;DHT22;14501;52.282;10.560;2022-11-20T06:19:17;-1.20;99.90
26947;DHT22;14501;52.282;10.560;2022-11-20T06:21:42;-1.10;99.90
26947;DHT22;14501;52.282;10.560;2022-11-20T06:24:11;-1.00;99.90
26947;DHT22;14501;52.282;10.560;2022-11-20T06:26:37;-1.00;99.90
26947;DHT22;14501;52.282;10.560;2022-11-20T06:29:02;-1.90;99.90
26947;DHT22;14501;52.282;10.560;2022-11-20T06:31:28;-1.10;99.90
26947;DHT22;14501;52.282;10.560;2022-11-20T06:33:54;-1.00;99.90
26947;DHT22;14501;52.282;10.560;2022-11-20T06:36:22;-1.00;99.90
26947;DHT22;14501;52.282;10.560;2022-11-20T06:38:48;-1.00;99.90
26947;DHT22;14501;52.282;10.560;2022-11-20T06:41:16;-1.00;99.90
26947;DHT22;14501;52.282;10.560;2022-11-20T06:43:43;-0.90;99.90
26947;DHT22;14501;52.282;10.560;2022-11-20T06:46:10;-0.90;99.90
26947;DHT22;14501;52.282;10.560;2022-11-20T06:48:36;-1.00;99.90
26947;DHT22;14501;52.282;10.560;2022-11-20T06:51:07;-0.90;99.90
26947;DHT22;14501;52.282;10.560;2022-11-20T06:53:33;-0.90;99.90
26947;DHT22;14501;52.282;10.560;2022-11-20T06:55:59;-0.90;99.90
26947;DHT22;14501;52.282;10.560;2022-11-20T06:58:27;-0.90;99.90
26947;DHT22;14501;52.282;10.560;2022-11-20T07:00:53;-0.80;99.90
26947;DHT22;14501;52.282;10.560;2022-11-20T07:03:19;-0.80;99.90
26947;DHT22;14501;52.282;10.560;2022-11-20T07:05:45;-0.80;99.90
26947;DHT22;14501;52.282;10.560;2022-11-20T07:08:11;-0.80;99.90
26947;DHT22;14501;52.282;10.560;2022-11-20T07:10:37;-0.70;99.90
26947;DHT22;14501;52.282;10.560;2022-11-20T07:13:03;-0.60;99.90
26947;DHT22;14501;52.282;10.560;2022-11-20T07:15:29;-0.80;99.90
26947;DHT22;14501;52.282;10.560;2022-11-20T07:17:55;-0.80;99.90
26947;DHT22;14501;52.282;10.560;2022-11-20T07:20:21;-0.80;99.90
26947;DHT22;14501;52.282;10.560;2022-11-20T07:22:46;-0.90;99.90
26947;DHT22;14501;52.282;10.560;2022-11-20T07:25:12;-0.80;99.90
26947;DHT22;14501;52.282;10.560;2022-11-20T07:27:38;-0.70;99.90
26947;DHT22;14501;52.282;10.560;2022-11-20T07:30:04;-0.80;99.90
26947;DHT22;14501;52.282;10.560;2022-11-20T07:32:30;-0.90;99.90
26947;DHT22;14501;52.282;10.560;2022-11-20T07:34:55;-0.70;99.90
26947;DHT22;14501;52.282;10.560;2022-11-20T07:37:21;-0.80;99.90
26947;DHT22;14501;52.282;10.560;2022-11-20T07:39:46;-0.80;99.90
26947;DHT22;14501;52.282;10.560;2022-11-20T07:42:12;-0.80;99.90
26947;DHT22;14501;52.282;10.560;2022-11-20T07:44:38;-0.70;99.90
26947;DHT22;14501;52.282;10.560;2022-11-20T07:47:04;-0.70;99.90
26947;DHT22;14501;52.282;10.560;2022-11-20T07:49:29;-0.70;99.90
26947;DHT22;14501;52.282;10.560;2022-11-20T07:51:55;-0.70;99.90
26947;DHT22;14501;52.282;10.560;2022-11-20T07:54:21;-0.60;99.90
26947;DHT22;14501;52.282;10.560;2022-11-20T07:56:48;-0.60;99.90
26947;DHT22;14501;52.282;10.560;2022-11-20T07:59:14;-0.50;99.90
26947;DHT22;14501;52.282;10.560;2022-11-20T08:01:41;-0.40;99.90
26947;DHT22;14501;52.282;10.560;2022-11-20T08:04:07;-0.40;99.90
26947;DHT22;14501;52.282;10.560;2022-11-20T08:06:32;-0.40;99.90
26947;DHT22;14501;52.282;10.560;2022-11-20T08:08:58;-0.40;99.90
26947;DHT22;14501;52.282;10.560;2022-11-20T08:11:24;-0.40;99.90
26947;DHT22;14501;52.282;10.560;2022-11-20T08:14:08;-0.40;99.90
26947;DHT22;14501;52.282;10.560;2022-11-20T08:16:44;-0.40;99.90
26947;DHT22;14501;52.282;10.560;2022-11-20T08:19:11;-0.40;99.90
26947;DHT22;14501;52.282;10.560;2022-11-20T08:21:37;-0.40;99.90
26947;DHT22;14501;52.282;10.560;2022-11-20T08:24:03;-0.30;99.90
26947;DHT22;14501;52.282;10.560;2022-11-20T08:26:29;-0.20;99.90
26947;DHT22;14501;52.282;10.560;2022-11-20T08:28:55;-0.10;99.90
26947;DHT22;14501;52.282;10.560;2022-11-20T08:31:25;-0.10;99.90
26947;DHT22;14501;52.282;10.560;2022-11-20T08:33:51;-0.10;99.90
26947;DHT22;14501;52.282;10.560;2022-11-20T08:36:18;0.00;99.90
26947;DHT22;14501;52.282;10.560;2022-11-20T08:38:51;0.10;99.90
26947;DHT22;14501;52.282;10.560;2022-11-20T08:41:17;0.10;99.90
26947;DHT22;14501;52.282;10.560;2022-11-20T08:43:49;0.10;99.90
26947;DHT22;14501;52.282;10.560;2022-11-20T08:46:16;0.20;99.90
26947;DHT22;14501;52.282;10.560;2022-11-20T08:48:42;0.30;99.90
26947;DHT22;14501;52.282;10.560;2022-11-20T08:51:08;0.20;99.90
26947;DHT22;14501;52.282;10.560;2022-11-20T08:53:34;0.30;99.90
26947;DHT22;14501;52.282;10.560;2022-11-20T08:55:59;0.40;99.90
26947;DHT22;14501;52.282;10.560;2022-11-20T08:58:25;0.40;99.90
26947;DHT22;14501;52.282;10.560;2022-11-20T09:00:51;0.40;99.90
26947;DHT22;14501;52.282;10.560;2022-11-20T09:03:17;0.50;99.90
26947;DHT22;14501;52.282;10.560;2022-11-20T09:05:43;0.50;99.90
26947;DHT22;14501;52.282;10.560;2022-11-20T09:08:09;0.60;99.90
26947;DHT22;14501;52.282;10.560;2022-11-20T09:10:34;0.60;99.90
26947;DHT22;14501;52.282;10.560;2022-11-20T09:13:00;0.60;99.90
26947;DHT22;14501;52.282;10.560;2022-11-20T09:15:27;0.60;99.90
26947;DHT22;14501;52.282;10.560;2022-11-20T09:17:53;0.60;99.90
26947;DHT22;14501;52.282;10.560;2022-11-20T09:20:19;0.60;99.90
26947;DHT22;14501;52.282;10.560;2022-11-20T09:22:45;0.70;99.90
26947;DHT22;14501;52.282;10.560;2022-11-20T09:25:11;0.80;99.90
26947;DHT22;14501;52.282;10.560;2022-11-20T09:27:36;1.30;99.90
26947;DHT22;14501;52.282;10.560;2022-11-20T09:30:02;1.30;99.90
26947;DHT22;14501;52.282;10.560;2022-11-20T09:32:28;1.40;99.90
26947;DHT22;14501;52.282;10.560;2022-11-20T09:34:54;1.60;99.90
26947;DHT22;14501;52.282;10.560;2022-11-20T09:37:19;2.70;99.90
26947;DHT22;14501;52.282;10.560;2022-11-20T09:39:45;2.00;99.90
26947;DHT22;14501;52.282;10.560;2022-11-20T09:42:27;2.20;99.90
26947;DHT22;14501;52.282;10.560;2022-11-20T09:48:04;2.60;99.90
26947;DHT22;14501;52.282;10.560;2022-11-20T09:50:36;2.90;99.90
26947;DHT22;14501;52.282;10.560;2022-11-20T09:55:48;3.00;99.90
26947;DHT22;14501;52.282;10.560;2022-11-20T09:58:40;3.10;99.90
26947;DHT22;14501;52.282;10.560;2022-11-20T10:01:17;3.00;99.90
26947;DHT22;14501;52.282;10.560;2022-11-20T10:03:59;3.00;99.90
26947;DHT22;14501;52.282;10.560;2022-11-20T10:09:39;2.80;99.90
26947;DHT22;14501;52.282;10.560;2022-11-20T10:31:34;3.90;99.90
26947;DHT22;14501;52.282;10.560;2022-11-20T10:34:07;4.10;99.90
26947;DHT22;14501;52.282;10.560;2022-11-20T10:36:43;4.00;99.90
26947;DHT22;14501;52.282;10.560;2022-11-20T10:39:28;3.80;99.90
26947;DHT22;14501;52.282;10.560;2022-11-20T10:41:56;3.90;99.90
26947;DHT22;14501;52.282;10.560;2022-11-20T10:44:26;4.00;99.90
26947;DHT22;14501;52.282;10.560;2022-11-20T10:47:18;4.10;99.90
26947;DHT22;14501;52.282;10.560;2022-11-20T10:49:45;4.20;99.90
26947;DHT22;14501;52.282;10.560;2022-11-20T11:00:33;4.00;99.90
26947;DHT22;14501;52.282;10.560;2022-11-20T11:02:58;4.20;99.90
26947;DHT22;14501;52.282;10.560;2022-11-20T11:05:33;4.30;99.90
26947;DHT22;14501;52.282;10.560;2022-11-20T11:08:00;4.20;99.90
26947;DHT22;14501;52.282;10.560;2022-11-20T11:13:03;4.20;99.90
26947;DHT22;14501;52.282;10.560;2022-11-20T11:15:40;4.10;99.90
26947;DHT22;14501;52.282;10.560;2022-11-20T11:18:10;3.60;99.90
26947;DHT22;14501;52.282;10.560;2022-11-20T11:20:36;3.70;99.90
26947;DHT22;14501;52.282;10.560;2022-11-20T11:23:02;3.70;99.90
26947;DHT22;14501;52.282;10.560;2022-11-20T11:27:58;4.00;99.90
26947;DHT22;14501;52.282;10.560;2022-11-20T11:30:25;4.00;99.90
26947;DHT22;14501;52.282;10.560;2022-11-20T11:33:05;4.10;99.90
26947;DHT22;14501;52.282;10.560;2022-11-20T11:35:31;4.20;99.90
26947;DHT22;14501;52.282;10.560;2022-11-20T11:38:06;4.20;99.90
26947;DHT22;14501;52.282;10.560;2022-11-20T11:40:39;4.30;99.90
26947;DHT22;14501;52.282;10.560;2022-11-20T11:43:07;4.50;99.90
26947;DHT22;14501;52.282;10.560;2022-11-20T11:46:02;4.90;99.90
26947;DHT22;14501;52.282;10.560;2022-11-20T11:48:29;5.30;99.90
26947;DHT22;14501;52.282;10.560;2022-11-20T11:50:54;5.30;99.90
26947;DHT22;14501;52.282;10.560;2022-11-20T11:53:22;5.40;99.90
26947;DHT22;14501;52.282;10.560;2022-11-20T11:56:09;5.40;99.90
26947;DHT22;14501;52.282;10.560;2022-11-20T11:58:46;5.50;99.90
26947;DHT22;14501;52.282;10.560;2022-11-20T12:07:01;5.30;99.90
26947;DHT22;14501;52.282;10.560;2022-11-20T12:09:36;5.10;99.90
26947;DHT22;14501;52.282;10.560;2022-11-20T12:12:13;4.90;99.90
26947;DHT22;14501;52.282;10.560;2022-11-20T12:14:45;4.60;99.90
26947;DHT22;14501;52.282;10.560;2022-11-20T12:19:38;4.20;99.90
26947;DHT22;14501;52.282;10.560;2022-11-20T12:22:35;3.90;99.90
26947;DHT22;14501;52.282;10.560;2022-11-20T12:25:18;3.80;99.90
26947;DHT22;14501;52.282;10.560;2022-11-20T12:30:30;3.50;99.90
26947;DHT22;14501;52.282;10.560;2022-11-20T12:41:04;3.90;99.90
26947;DHT22;14501;52.282;10.560;2022-11-20T12:43:31;3.80;99.90
26947;DHT22;14501;52.282;10.560;2022-11-20T12:55:17;3.20;99.90
26947;DHT22;14501;52.282;10.560;2022-11-20T12:57:55;3.10;99.90
26947;DHT22;14501;52.282;10.560;2022-11-20T13:00:23;3.00;99.90
26947;DHT22;14501;52.282;10.560;2022-11-20T13:08:39;3.10;99.90
26947;DHT22;14501;52.282;10.560;2022-11-20T13:14:21;3.50;99.90
26947;DHT22;14501;52.282;10.560;2022-11-20T13:19:26;3.80;99.90
26947;DHT22;14501;52.282;10.560;2022-11-20T13:21:53;4.00;99.90
26947;DHT22;14501;52.282;10.560;2022-11-20T13:24:21;4.20;99.90
26947;DHT22;14501;52.282;10.560;2022-11-20T13:29:35;4.00;99.90
26947;DHT22;14501;52.282;10.560;2022-11-20T13:32:12;4.10;99.90
26947;DHT22;14501;52.282;10.560;2022-11-20T13:34:39;3.90;99.90
26947;DHT22;14501;52.282;10.560;2022-11-20T13:39:50;3.40;99.90
26947;DHT22;14501;52.282;10.560;2022-11-20T13:42:27;3.40;99.90
26947;DHT22;14501;52.282;10.560;2022-11-20T13:45:01;3.40;99.90
26947;DHT22;14501;52.282;10.560;2022-11-20T13:47:28;3.20;99.90
26947;DHT22;14501;52.282;10.560;2022-11-20T13:49:57;3.10;99.90
26947;DHT22;14501;52.282;10.560;2022-11-20T13:55:37;2.80;99.90
26947;DHT22;14501;52.282;10.560;2022-11-20T14:00:33;2.20;99.90
26947;DHT22;14501;52.282;10.560;2022-11-20T14:03:19;2.10;99.90
26947;DHT22;14501;52.282;10.560;2022-11-20T14:05:52;2.00;99.90
26947;DHT22;14501;52.282;10.560;2022-11-20T14:13:39;1.80;99.90
26947;DHT22;14501;52.282;10.560;2022-11-20T14:16:04;1.90;99.90
26947;DHT22;14501;52.282;10.560;2022-11-20T14:18:30;1.90;99.90
26947;DHT22;14501;52.282;10.560;2022-11-20T14:20:55;2.10;99.90
26947;DHT22;14501;52.282;10.560;2022-11-20T14:23:29;2.10;99.90
26947;DHT22;14501;52.282;10.560;2022-11-20T14:25:55;2.10;99.90
26947;DHT22;14501;52.282;10.560;2022-11-20T14:28:29;2.00;99.90
26947;DHT22;14501;52.282;10.560;2022-11-20T14:30:56;1.90;99.90
26947;DHT22;14501;52.282;10.560;2022-11-20T14:33:23;2.00;99.90
26947;DHT22;14501;52.282;10.560;2022-11-20T14:35:57;3.00;99.90
26947;DHT22;14501;52.282;10.560;2022-11-20T14:38:24;1.90;99.90
26947;DHT22;14501;52.282;10.560;2022-11-20T14:40:51;2.50;99.90
26947;DHT22;14501;52.282;10.560;2022-11-20T14:43:25;1.60;99.90
26947;DHT22;14501;52.282;10.560;2022-11-20T14:46:00;2.70;99.90
26947;DHT22;14501;52.282;10.560;2022-11-20T14:48:54;1.70;99.90
26947;DHT22;14501;52.282;10.560;2022-11-20T14:51:38;1.60;99.90
26947;DHT22;14501;52.282;10.560;2022-11-20T14:54:21;1.70;99.90
26947;DHT22;14501;52.282;10.560;2022-11-20T14:56:56;1.40;99.90
26947;DHT22;14501;52.282;10.560;2022-11-20T14:59:26;1.60;99.90
26947;DHT22;14501;52.282;10.560;2022-11-20T15:02:04;1.80;99.90
26947;DHT22;14501;52.282;10.560;2022-11-20T15:04:30;1.70;99.90
26947;DHT22;14501;52.282;10.560;2022-11-20T15:06:58;1.70;99.90
26947;DHT22;14501;52.282;10.560;2022-11-20T15:09:25;1.60;99.90
26947;DHT22;14501;52.282;10.560;2022-11-20T15:14:18;1.40;99.90
26947;DHT22;14501;52.282;10.560;2022-11-20T15:19:18;1.30;99.90
26947;DHT22;14501;52.282;10.560;2022-11-20T15:21:44;1.10;99.90
26947;DHT22;14501;52.282;10.560;2022-11-20T15:24:10;1.10;99.90
26947;DHT22;14501;52.282;10.560;2022-11-20T15:26:36;1.00;99.90
26947;DHT22;14501;52.282;10.560;2022-11-20T15:29:03;1.00;99.90
26947;DHT22;14501;52.282;10.560;2022-11-20T15:31:29;1.00;99.90
26947;DHT22;14501;52.282;10.560;2022-11-20T15:33:54;0.90;99.90
26947;DHT22;14501;52.282;10.560;2022-11-20T15:38:46;0.90;99.90
26947;DHT22;14501;52.282;10.560;2022-11-20T15:43:38;0.80;99.90
26947;DHT22;14501;52.282;10.560;2022-11-20T15:46:09;0.60;99.90
26947;DHT22;14501;52.282;10.560;2022-11-20T15:48:39;0.70;99.90
26947;DHT22;14501;52.282;10.560;2022-11-20T15:53:41;0.60;99.90
26947;DHT22;14501;52.282;10.560;2022-11-20T15:56:13;0.50;99.90
26947;DHT22;14501;52.282;10.560;2022-11-20T15:58:40;0.40;99.90
26947;DHT22;14501;52.282;10.560;2022-11-20T16:01:10;0.30;99.90
26947;DHT22;14501;52.282;10.560;2022-11-20T16:03:35;0.30;99.90
26947;DHT22;14501;52.282;10.560;2022-11-20T16:06:01;0.30;99.90
26947;DHT22;14501;52.282;10.560;2022-11-20T16:08:26;0.30;99.90
26947;DHT22;14501;52.282;10.560;2022-11-20T16:10:52;0.20;99.90
26947;DHT22;14501;52.282;10.560;2022-11-20T16:13:18;0.20;99.90
26947;DHT22;14501;52.282;10.560;2022-11-20T16:16:18;0.20;99.90
26947;DHT22;14501;52.282;10.560;2022-11-20T16:18:44;0.20;99.90
26947;DHT22;14501;52.282;10.560;2022-11-20T16:21:13;0.10;99.90
26947;DHT22;14501;52.282;10.560;2022-11-20T16:23:39;0.10;99.90
26947;DHT22;14501;52.282;10.560;2022-11-20T16:26:31;0.00;99.90
26947;DHT22;14501;52.282;10.560;2022-11-20T16:28:59;0.00;99.90
26947;DHT22;14501;52.282;10.560;2022-11-20T16:31:24;0.10;99.90
26947;DHT22;14501;52.282;10.560;2022-11-20T16:34:05;0.10;99.90
26947;DHT22;14501;52.282;10.560;2022-11-20T16:36:31;0.10;99.90
26947;DHT22;14501;52.282;10.560;2022-11-20T16:39:00;0.10;99.90
26947;DHT22;14501;52.282;10.560;2022-11-20T16:41:27;0.00;99.90
26947;DHT22;14501;52.282;10.560;2022-11-20T16:43:58;0.00;99.90
26947;DHT22;14501;52.282;10.560;2022-11-20T16:46:27;1.00;99.90
26947;DHT22;14501;52.282;10.560;2022-11-20T16:48:58;-0.10;99.90
26947;DHT22;14501;52.282;10.560;2022-11-20T16:51:25;-0.20;99.90
26947;DHT22;14501;52.282;10.560;2022-11-20T16:53:51;-0.20;99.90
26947;DHT22;14501;52.282;10.560;2022-11-20T16:56:20;1.00;99.90
26947;DHT22;14501;52.282;10.560;2022-11-20T16:58:48;-0.30;99.90
26947;DHT22;14501;52.282;10.560;2022-11-20T17:01:16;-0.50;99.90
26947;DHT22;14501;52.282;10.560;2022-11-20T17:03:43;2.10;99.90
26947;DHT22;14501;52.282;10.560;2022-11-20T17:11:08;-0.60;99.90
26947;DHT22;14501;52.282;10.560;2022-11-20T17:13:35;-0.60;99.90
26947;DHT22;14501;52.282;10.560;2022-11-20T17:16:09;-0.70;99.90
26947;DHT22;14501;52.282;10.560;2022-11-20T17:18:36;-0.70;99.90
26947;DHT22;14501;52.282;10.560;2022-11-20T17:21:03;-0.80;99.90
26947;DHT22;14501;52.282;10.560;2022-11-20T17:23:35;-0.90;99.90
26947;DHT22;14501;52.282;10.560;2022-11-20T17:26:06;-0.90;99.90
26947;DHT22;14501;52.282;10.560;2022-11-20T17:28:32;-0.90;99.90
26947;DHT22;14501;52.282;10.560;2022-11-20T17:31:04;-1.00;99.90
26947;DHT22;14501;52.282;10.560;2022-11-20T17:33:31;-1.00;99.90